Time;durP1;ratioP1;P1;durP2;ratioP2;P2;SDS_P1;SDS_P2;PMS_P1;PMS_P2;Temp;Humidity;BMP_temperature;BMP_pressure;BME280_temperature;BME280_humidity;BME280_pressure;Samples;Min_cycle;Max_cycle;Signal;HPM_P1;HPM_P2
2023/07/08 00:01:38;;;;;;;8.68;5.05;;;24.80;84.40;;;;;;5043542;28;20574;-34
2023/07/08 00:04:07;;;;;;;7.53;4.63;;;24.80;84.40;;;;;;5043205;28;20666;-34
2023/07/08 00:06:38;;;;;;;8.50;4.72;;;24.70;84.30;;;;;;5026817;28;20643;-34
2023/07/08 00:09:13;;;;;;;6.35;4.90;;;24.70;84.50;;;;;;5027747;28;20192;-33
2023/07/08 00:11:43;;;;;;;8.68;5.25;;;24.60;84.50;;;;;;5043144;28;20678;-34
2023/07/08 00:14:13;;;;;;;10.30;5.07;;;24.50;84.40;;;;;;5044880;28;20669;-34
2023/07/08 00:16:47;;;;;;;9.13;4.60;;;24.50;84.60;;;;;;5044375;28;20235;-34
2023/07/08 00:19:18;;;;;;;8.55;5.18;;;24.40;84.70;;;;;;5044587;28;20623;-34
2023/07/08 00:21:46;;;;;;;5.55;4.80;;;24.30;84.50;;;;;;5044883;28;20664;-34
2023/07/08 00:24:13;;;;;;;10.85;4.82;;;24.30;84.70;;;;;;5044408;28;20735;-34
2023/07/08 00:26:43;;;;;;;7.25;5.40;;;24.20;84.60;;;;;;5042604;28;20197;-34
2023/07/08 00:29:10;;;;;;;9.13;4.97;;;24.20;84.80;;;;;;5042683;28;20283;-33
2023/07/08 00:31:40;;;;;;;6.75;4.68;;;24.10;84.80;;;;;;5042792;28;20193;-34
2023/07/08 00:34:09;;;;;;;8.63;4.95;;;24.10;84.80;;;;;;5042846;28;20201;-27
2023/07/08 00:36:37;;;;;;;5.30;4.75;;;24.00;84.90;;;;;;5026632;28;20200;-27
2023/07/08 00:39:14;;;;;;;7.65;4.60;;;24.00;84.90;;;;;;5042917;28;20579;-27
2023/07/08 00:41:45;;;;;;;8.10;5.38;;;24.00;85.30;;;;;;5044790;28;20204;-26
2023/07/08 00:44:15;;;;;;;7.03;4.97;;;23.90;85.00;;;;;;5042550;28;20188;-27
2023/07/08 00:47:01;;;;;;;11.63;5.50;;;23.90;85.20;;;;;;5027010;28;20295;-27
2023/07/08 00:49:43;;;;;;;8.98;5.00;;;23.80;85.50;;;;;;5044610;28;20197;-27
2023/07/08 00:52:18;;;;;;;7.25;4.78;;;23.80;85.70;;;;;;5042856;28;20196;-26
2023/07/08 00:54:49;;;;;;;8.35;4.70;;;23.70;85.70;;;;;;5042733;28;20184;-26
2023/07/08 00:57:22;;;;;;;9.63;5.28;;;23.70;85.40;;;;;;5042667;28;20208;-27
2023/07/08 00:59:58;;;;;;;6.95;5.30;;;23.60;85.50;;;;;;5046446;28;20211;-27
2023/07/08 01:02:27;;;;;;;6.95;5.30;;;23.60;85.90;;;;;;5046220;28;20748;-26
2023/07/08 01:05:00;;;;;;;7.75;5.05;;;23.50;85.70;;;;;;5046594;28;20312;-26
2023/07/08 01:07:32;;;;;;;9.07;5.10;;;23.50;86.00;;;;;;5048267;28;20342;-26
2023/07/08 01:10:16;;;;;;;10.23;5.43;;;23.50;85.90;;;;;;5046391;28;20203;-27
2023/07/08 01:12:54;;;;;;;6.75;5.18;;;23.50;86.70;;;;;;5047877;28;20741;-27
2023/07/08 01:15:29;;;;;;;7.30;5.80;;;23.40;86.60;;;;;;5048158;28;20196;-27
2023/07/08 01:17:57;;;;;;;8.27;5.63;;;23.40;86.40;;;;;;5047696;28;20225;-26
2023/07/08 01:20:26;;;;;;;6.97;5.50;;;23.40;86.40;;;;;;5045907;28;20641;-27
2023/07/08 01:22:56;;;;;;;8.07;5.43;;;23.30;86.50;;;;;;5048026;28;20200;-27
2023/07/08 01:25:25;;;;;;;8.75;5.82;;;23.30;86.70;;;;;;5047760;28;20315;-30
2023/07/08 01:27:59;;;;;;;6.78;5.45;;;23.30;86.70;;;;;;5046052;28;20316;-26
2023/07/08 01:30:27;;;;;;;6.80;5.32;;;23.20;86.80;;;;;;5047544;28;20296;-27
2023/07/08 01:33:02;;;;;;;6.97;5.45;;;23.20;86.90;;;;;;5029666;28;20227;-26
2023/07/08 01:35:30;;;;;;;8.10;5.72;;;23.20;87.40;;;;;;5046046;28;20579;-26
2023/07/08 01:38:01;;;;;;;7.22;5.72;;;23.10;87.00;;;;;;5045688;28;20748;-27
2023/07/08 01:40:34;;;;;;;7.78;5.53;;;23.10;87.30;;;;;;5046028;28;20208;-26
2023/07/08 01:43:02;;;;;;;6.78;5.13;;;23.10;87.30;;;;;;5047004;28;20291;-26
2023/07/08 01:45:36;;;;;;;8.63;5.70;;;23.10;87.40;;;;;;5047557;28;20626;-27
2023/07/08 01:48:11;;;;;;;14.98;6.43;;;23.00;87.70;;;;;;5047302;28;20679;-26
2023/07/08 01:50:44;;;;;;;6.65;5.18;;;23.00;87.70;;;;;;5047046;28;20623;-26
2023/07/08 01:53:17;;;;;;;7.38;5.82;;;23.00;87.60;;;;;;5047469;28;20291;-27
2023/07/08 01:55:46;;;;;;;11.27;5.78;;;22.90;87.70;;;;;;5045654;28;20285;-26
2023/07/08 01:58:13;;;;;;;6.78;5.35;;;22.90;87.60;;;;;;5047217;28;20210;-26
2023/07/08 02:00:48;;;;;;;7.10;5.60;;;22.90;87.80;;;;;;5047141;28;20285;-34
2023/07/08 02:03:18;;;;;;;7.13;5.43;;;22.90;87.80;;;;;;5046897;28;20275;-34
2023/07/08 02:05:48;;;;;;;8.32;5.28;;;22.80;87.80;;;;;;5045696;28;20746;-34
2023/07/08 02:08:18;;;;;;;10.43;6.00;;;22.80;88.10;;;;;;5046964;28;20256;-34
2023/07/08 02:10:51;;;;;;;7.50;6.18;;;22.80;88.10;;;;;;5046806;28;20200;-34
2023/07/08 02:13:22;;;;;;;5.45;4.88;;;22.70;88.40;;;;;;5045430;28;20196;-34
2023/07/08 02:15:53;;;;;;;9.10;5.43;;;22.70;88.40;;;;;;5045153;28;20496;-34
2023/07/08 02:18:26;;;;;;;7.13;5.32;;;22.70;88.30;;;;;;5046513;28;20204;-34
2023/07/08 02:20:58;;;;;;;8.75;5.50;;;22.60;88.40;;;;;;5045364;28;20208;-34
2023/07/08 02:23:28;;;;;;;8.38;5.40;;;22.60;88.50;;;;;;5029169;28;20864;-34
2023/07/08 02:25:56;;;;;;;9.07;5.68;;;22.50;88.40;;;;;;5046904;28;20219;-33
2023/07/08 02:28:28;;;;;;;8.43;5.68;;;22.50;88.40;;;;;;5046624;28;20227;-34
2023/07/08 02:30:55;;;;;;;8.98;5.30;;;22.40;88.50;;;;;;5046839;28;20209;-34
2023/07/08 02:33:27;;;;;;;7.72;5.30;;;22.40;88.50;;;;;;5046579;28;20311;-34
2023/07/08 02:35:57;;;;;;;7.43;5.07;;;22.30;88.50;;;;;;5046474;28;20607;-34
2023/07/08 02:38:26;;;;;;;11.05;5.72;;;22.30;88.50;;;;;;5044442;28;20715;-34
2023/07/08 02:40:58;;;;;;;7.38;5.18;;;22.30;88.60;;;;;;5046699;28;20352;-34
2023/07/08 02:43:26;;;;;;;6.53;5.20;;;22.20;88.70;;;;;;5044418;28;20226;-33
2023/07/08 02:45:56;;;;;;;9.98;5.55;;;22.20;88.70;;;;;;5044688;28;20204;-34
2023/07/08 02:48:26;;;;;;;8.27;5.57;;;22.20;88.70;;;;;;5046346;28;20220;-34
2023/07/08 02:51:04;;;;;;;7.45;5.47;;;22.10;88.80;;;;;;5046404;28;20287;-26
2023/07/08 02:53:37;;;;;;;10.00;5.55;;;22.10;89.30;;;;;;5044523;28;20196;-27
2023/07/08 02:56:06;;;;;;;8.60;5.88;;;22.10;88.90;;;;;;5046153;28;20199;-27
2023/07/08 02:58:35;;;;;;;7.28;5.63;;;22.10;88.90;;;;;;5045941;28;20212;-26
2023/07/08 03:01:02;;;;;;;7.30;5.70;;;22.10;89.00;;;;;;5045842;28;20246;-26
2023/07/08 03:03:30;;;;;;;7.63;5.53;;;22.10;89.20;;;;;;5045513;28;20218;-26
2023/07/08 03:06:02;;;;;;;7.03;5.18;;;22.10;89.20;;;;;;5044685;28;20670;-26
2023/07/08 03:08:30;;;;;;;7.68;5.57;;;22.10;89.30;;;;;;5044120;28;20231;-27
2023/07/08 03:10:59;;;;;;;9.48;5.43;;;22.00;89.30;;;;;;5027774;28;20224;-26
2023/07/08 03:13:28;;;;;;;10.80;6.07;;;22.10;89.50;;;;;;5045895;28;20327;-26
2023/07/08 03:16:08;;;;;;;7.65;5.25;;;22.10;90.10;;;;;;5045728;28;20528;-27
2023/07/08 03:18:45;;;;;;;7.75;5.65;;;22.10;89.90;;;;;;5046032;28;20204;-27
2023/07/08 03:21:17;;;;;;;6.05;5.45;;;22.10;89.80;;;;;;5045488;28;20554;-26
2023/07/08 03:23:44;;;;;;;8.07;5.57;;;22.10;90.10;;;;;;5045760;28;20204;-26
2023/07/08 03:26:17;;;;;;;7.25;5.72;;;22.10;90.00;;;;;;5045185;28;20297;-27
2023/07/08 03:28:46;;;;;;;7.30;5.35;;;22.10;90.10;;;;;;5043782;28;20311;-26
2023/07/08 03:31:14;;;;;;;6.60;5.20;;;22.20;90.20;;;;;;5044911;28;20250;-27
2023/07/08 03:33:41;;;;;;;7.18;5.90;;;22.20;90.20;;;;;;5043934;28;20250;-34
2023/07/08 03:36:25;;;;;;;9.27;6.07;;;22.20;90.30;;;;;;5043761;28;20231;-34
2023/07/08 03:38:55;;;;;;;9.93;5.78;;;22.20;90.40;;;;;;5045216;28;20247;-34
2023/07/08 03:41:25;;;;;;;6.95;5.70;;;22.20;90.40;;;;;;5044940;28;20270;-33
2023/07/08 03:43:55;;;;;;;7.10;5.70;;;22.20;90.50;;;;;;5044931;28;20580;-26
2023/07/08 03:46:23;;;;;;;7.18;6.00;;;22.20;90.50;;;;;;5043190;28;20291;-26
2023/07/08 03:48:55;;;;;;;8.05;5.75;;;22.20;90.60;;;;;;5045287;28;20216;-27
2023/07/08 03:51:26;;;;;;;7.95;5.85;;;22.20;90.70;;;;;;5043615;28;20266;-27
2023/07/08 03:53:57;;;;;;;7.70;6.00;;;22.20;90.70;;;;;;5043587;28;20294;-26
2023/07/08 03:56:24;;;;;;;6.00;5.40;;;22.20;90.70;;;;;;5043344;28;20631;-26
2023/07/08 03:58:52;;;;;;;7.68;6.00;;;22.20;90.80;;;;;;5044813;28;20200;-26
2023/07/08 04:01:24;;;;;;;6.28;5.10;;;22.20;90.80;;;;;;5043066;28;20200;-26
2023/07/08 04:03:58;;;;;;;6.18;5.30;;;22.20;90.90;;;;;;5042872;28;20214;-26
2023/07/08 04:06:29;;;;;;;8.10;5.65;;;22.10;90.90;;;;;;5044545;28;20208;-25
2023/07/08 04:08:56;;;;;;;7.80;5.85;;;22.10;90.80;;;;;;5044976;28;20655;-26
2023/07/08 04:11:24;;;;;;;6.75;5.65;;;22.10;90.90;;;;;;5044441;28;20678;-26
2023/07/08 04:13:53;;;;;;;9.88;6.53;;;22.10;91.00;;;;;;5043194;28;20699;-26
2023/07/08 04:16:28;;;;;;;8.65;5.82;;;22.10;91.00;;;;;;5043150;28;20234;-26
2023/07/08 04:18:56;;;;;;;7.30;5.70;;;22.10;91.20;;;;;;5042916;28;20227;-26
2023/07/08 04:21:26;;;;;;;7.07;5.85;;;22.10;91.10;;;;;;5044619;28;20214;-26
2023/07/08 04:23:55;;;;;;;8.25;5.68;;;22.10;91.10;;;;;;5042981;28;20196;-26
2023/07/08 04:26:22;;;;;;;9.20;5.50;;;22.10;91.20;;;;;;5044383;28;20693;-26
2023/07/08 04:28:50;;;;;;;6.68;5.28;;;22.10;91.20;;;;;;5042943;28;20223;-26
2023/07/08 04:31:22;;;;;;;7.68;5.60;;;22.10;91.20;;;;;;5042574;28;20192;-26
2023/07/08 04:33:54;;;;;;;7.38;5.65;;;22.10;91.30;;;;;;5046251;28;20196;-33
2023/07/08 04:36:26;;;;;;;6.57;5.32;;;22.20;91.40;;;;;;5047256;28;20207;-33
2023/07/08 04:38:57;;;;;;;9.38;5.65;;;22.20;91.50;;;;;;5030331;28;20305;-33
2023/07/08 04:41:25;;;;;;;7.68;5.85;;;22.20;91.50;;;;;;5047161;28;20208;-33
2023/07/08 04:43:57;;;;;;;8.38;6.10;;;22.20;91.50;;;;;;5046930;28;20200;-33
2023/07/08 04:46:50;;;;;;;8.38;5.40;;;22.20;91.50;;;;;;5048263;28;20204;-33
2023/07/08 04:49:31;;;;;;;7.13;5.88;;;22.20;91.80;;;;;;5048273;28;20290;-33
2023/07/08 04:51:59;;;;;;;10.18;6.25;;;22.20;91.60;;;;;;5048340;28;20195;-33
2023/07/08 04:54:28;;;;;;;7.90;5.95;;;22.20;91.60;;;;;;5048515;28;20594;-33
2023/07/08 04:56:58;;;;;;;8.00;6.05;;;22.30;91.70;;;;;;5030679;28;20204;-33
2023/07/08 04:59:26;;;;;;;6.88;5.50;;;22.30;91.70;;;;;;5046739;28;20298;-26
2023/07/08 05:01:55;;;;;;;12.13;5.75;;;22.30;91.70;;;;;;5046573;28;20272;-26
2023/07/08 05:04:25;;;;;;;8.40;5.68;;;22.30;91.80;;;;;;5047970;28;20204;-26
2023/07/08 05:06:52;;;;;;;8.13;6.22;;;22.30;91.80;;;;;;5047748;28;20208;-26
2023/07/08 05:09:25;;;;;;;6.22;5.40;;;22.40;91.90;;;;;;5046548;28;20224;-26
2023/07/08 05:11:57;;;;;;;8.45;5.85;;;22.40;91.80;;;;;;5048103;28;20226;-26
2023/07/08 05:14:27;;;;;;;12.63;5.65;;;22.40;91.90;;;;;;5047724;28;20551;-26
2023/07/08 05:16:57;;;;;;;7.93;5.50;;;22.50;92.00;;;;;;5047783;28;20212;-26
2023/07/08 05:19:25;;;;;;;7.47;5.40;;;22.50;92.00;;;;;;5029806;28;20199;-26
2023/07/08 05:21:59;;;;;;;7.20;5.70;;;22.60;92.00;;;;;;5046411;28;20208;-26
2023/07/08 05:24:29;;;;;;;8.27;5.55;;;22.60;92.10;;;;;;5046275;28;20200;-33
2023/07/08 05:26:59;;;;;;;7.03;5.82;;;22.70;92.20;;;;;;5045967;28;20928;-33
2023/07/08 05:29:30;;;;;;;6.78;5.72;;;22.70;92.10;;;;;;5046369;28;20230;-33
2023/07/08 05:32:00;;;;;;;7.65;5.68;;;22.80;92.20;;;;;;5046381;28;20383;-33
2023/07/08 05:34:29;;;;;;;10.00;7.15;;;22.90;92.30;;;;;;5047672;28;20197;-26
2023/07/08 05:36:59;;;;;;;11.65;6.53;;;22.90;92.30;;;;;;5047555;28;20235;-26
2023/07/08 05:39:31;;;;;;;10.13;6.18;;;22.90;92.30;;;;;;5048299;28;20204;-26
2023/07/08 05:42:01;;;;;;;13.23;5.93;;;23.00;92.30;;;;;;5047345;28;20211;-26
2023/07/08 05:44:28;;;;;;;7.80;5.93;;;23.00;92.40;;;;;;5045496;28;20748;-26
2023/07/08 05:46:55;;;;;;;8.52;6.07;;;23.10;92.40;;;;;;5047503;28;20511;-25
2023/07/08 05:49:24;;;;;;;9.07;6.85;;;23.10;92.40;;;;;;5029541;28;20228;-26
2023/07/08 05:51:55;;;;;;;12.13;6.47;;;23.20;92.40;;;;;;5045563;28;20618;-26
2023/07/08 05:54:24;;;;;;;8.88;6.10;;;23.20;92.40;;;;;;5045741;28;20841;-26
2023/07/08 05:56:53;;;;;;;8.95;6.38;;;23.20;92.40;;;;;;5045421;28;20635;-26
2023/07/08 05:59:23;;;;;;;10.10;6.20;;;23.30;92.30;;;;;;5046739;28;20854;-26
2023/07/08 06:01:52;;;;;;;8.10;5.80;;;23.30;92.30;;;;;;5045456;28;20217;-26
2023/07/08 06:04:20;;;;;;;8.07;6.05;;;23.30;92.20;;;;;;5047354;28;20200;-27
2023/07/08 06:06:50;;;;;;;8.25;6.40;;;23.30;92.10;;;;;;5045670;28;20269;-26
2023/07/08 06:09:17;;;;;;;7.55;5.97;;;23.40;92.10;;;;;;5045019;28;20713;-34
2023/07/08 06:11:45;;;;;;;8.75;6.43;;;23.40;92.10;;;;;;5046650;28;20192;-34
2023/07/08 06:14:12;;;;;;;9.25;6.40;;;23.50;92.10;;;;;;5046523;28;20282;-34
2023/07/08 06:16:39;;;;;;;8.68;5.97;;;23.50;92.20;;;;;;5045307;28;20834;-34
2023/07/08 06:19:10;;;;;;;9.55;6.28;;;23.50;92.20;;;;;;5028926;28;20227;-34
2023/07/08 06:21:43;;;;;;;9.00;6.28;;;23.60;92.10;;;;;;5046626;28;20215;-34
2023/07/08 06:24:12;;;;;;;8.70;6.30;;;23.60;92.10;;;;;;5046551;28;20208;-34
2023/07/08 06:26:44;;;;;;;8.30;6.03;;;23.70;92.20;;;;;;5045680;28;20195;-34
2023/07/08 06:29:24;;;;;;;8.32;5.72;;;23.70;92.20;;;;;;5045229;28;20224;-34
2023/07/08 06:31:52;;;;;;;9.25;5.90;;;23.80;92.20;;;;;;5046202;28;20193;-34
2023/07/08 06:34:23;;;;;;;7.22;5.90;;;23.90;92.20;;;;;;5046339;28;20682;-34
2023/07/08 06:36:53;;;;;;;9.20;6.15;;;24.00;92.30;;;;;;5046403;28;20258;-35
2023/07/08 06:39:20;;;;;;;10.98;6.90;;;24.00;92.30;;;;;;5046042;28;20730;-34
2023/07/08 06:41:47;;;;;;;7.43;5.57;;;24.10;92.30;;;;;;5044572;28;20211;-33
2023/07/08 06:44:17;;;;;;;9.63;6.65;;;24.20;92.40;;;;;;5044662;28;20204;-34
2023/07/08 06:46:46;;;;;;;10.45;6.95;;;24.30;92.40;;;;;;5044364;28;20257;-34
2023/07/08 06:49:13;;;;;;;9.52;7.13;;;24.30;92.70;;;;;;5027962;28;20765;-34
2023/07/08 06:51:42;;;;;;;11.38;6.57;;;24.40;92.50;;;;;;5044522;28;20196;-34
2023/07/08 06:54:14;;;;;;;10.57;6.50;;;24.50;92.50;;;;;;5046106;28;20218;-34
2023/07/08 06:56:42;;;;;;;8.70;5.90;;;24.50;92.50;;;;;;5043516;28;20263;-33
2023/07/08 06:59:11;;;;;;;8.15;6.40;;;24.60;92.60;;;;;;5045977;28;20212;-34
2023/07/08 07:01:41;;;;;;;9.55;6.57;;;24.70;92.60;;;;;;5044545;28;20212;-34
2023/07/08 07:04:08;;;;;;;9.35;6.20;;;24.70;92.60;;;;;;5044186;28;20206;-34
2023/07/08 07:06:37;;;;;;;8.02;5.60;;;24.80;92.60;;;;;;5045747;28;20219;-34
2023/07/08 07:09:12;;;;;;;7.35;6.07;;;24.90;92.70;;;;;;5046230;28;20232;-34
2023/07/08 07:11:39;;;;;;;7.93;6.10;;;25.00;92.70;;;;;;5046230;28;20698;-34
2023/07/08 07:14:09;;;;;;;7.40;6.10;;;25.00;92.70;;;;;;5044224;28;20192;-34
2023/07/08 07:16:42;;;;;;;7.35;6.20;;;25.10;92.70;;;;;;5045639;28;20224;-34
2023/07/08 07:19:28;;;;;;;7.70;6.18;;;25.10;92.70;;;;;;5045890;28;20261;-34
2023/07/08 07:21:55;;;;;;;8.98;6.50;;;25.30;92.70;;;;;;5043753;28;20207;-34
2023/07/08 07:24:22;;;;;;;8.77;6.25;;;25.30;92.80;;;;;;5044384;28;20224;-33
2023/07/08 07:26:52;;;;;;;7.75;6.47;;;25.40;92.80;;;;;;5043537;28;20315;-34
2023/07/08 07:29:23;;;;;;;9.63;6.63;;;25.40;92.80;;;;;;5045346;28;20242;-34
2023/07/08 07:31:51;;;;;;;7.32;6.18;;;25.50;92.80;;;;;;5043961;28;20284;-34
2023/07/08 07:34:19;;;;;;;7.72;6.13;;;25.50;92.80;;;;;;5043605;28;20674;-34
2023/07/08 07:36:46;;;;;;;8.98;6.55;;;25.60;92.90;;;;;;5045230;28;20598;-34
2023/07/08 07:39:13;;;;;;;9.48;6.70;;;25.70;92.90;;;;;;5026996;28;20315;-34
2023/07/08 07:41:41;;;;;;;8.32;6.30;;;25.70;92.80;;;;;;5044904;28;20216;-34
2023/07/08 07:44:10;;;;;;;9.05;6.00;;;25.80;92.90;;;;;;5044962;28;20196;-34
2023/07/08 07:46:39;;;;;;;7.57;6.25;;;25.90;92.90;;;;;;5043381;28;20365;-34
2023/07/08 07:49:13;;;;;;;9.77;6.80;;;26.00;92.90;;;;;;5042980;28;20238;-34
2023/07/08 07:51:46;;;;;;;9.65;6.38;;;26.00;92.90;;;;;;5045157;28;20213;-34
2023/07/08 07:54:13;;;;;;;7.85;6.88;;;26.10;93.30;;;;;;5044993;28;20305;-27
2023/07/08 07:56:40;;;;;;;11.15;6.78;;;26.10;93.00;;;;;;5045319;28;20822;-27
2023/07/08 07:59:10;;;;;;;7.32;6.30;;;26.20;93.10;;;;;;5044441;28;20613;-26
2023/07/08 08:01:41;;;;;;;8.98;6.80;;;26.30;93.20;;;;;;5044553;28;20265;-27
2023/07/08 08:04:11;;;;;;;7.55;6.22;;;26.40;93.20;;;;;;5044672;28;20262;-26
2023/07/08 08:06:38;;;;;;;7.65;6.32;;;26.40;93.20;;;;;;5043240;28;20200;-27
2023/07/08 08:09:08;;;;;;;7.18;6.05;;;26.40;93.10;;;;;;5044573;28;20282;-27
2023/07/08 08:11:36;;;;;;;8.57;6.28;;;26.40;93.20;;;;;;5042916;28;20254;-27
2023/07/08 08:14:10;;;;;;;8.50;6.47;;;26.50;93.10;;;;;;5010967;28;20250;-27
2023/07/08 08:16:40;;;;;;;7.72;6.47;;;26.50;93.10;;;;;;5044597;28;20200;-27
2023/07/08 08:19:09;;;;;;;8.15;6.22;;;26.50;93.20;;;;;;5026709;28;20192;-27
2023/07/08 08:21:41;;;;;;;12.00;6.80;;;26.60;93.20;;;;;;5044043;28;20208;-27
2023/07/08 08:24:08;;;;;;;6.82;5.95;;;26.60;93.20;;;;;;5042789;28;20204;-26
2023/07/08 08:26:36;;;;;;;9.82;6.65;;;26.60;93.10;;;;;;5044059;28;20729;-26
2023/07/08 08:29:05;;;;;;;8.40;6.88;;;26.60;93.10;;;;;;5043160;28;20236;-26
2023/07/08 08:31:32;;;;;;;10.23;6.80;;;26.70;93.10;;;;;;5042880;28;20233;-27
2023/07/08 08:33:59;;;;;;;9.63;7.07;;;26.70;93.10;;;;;;5044249;28;20295;-26
2023/07/08 08:36:29;;;;;;;7.68;6.32;;;26.70;93.10;;;;;;5044243;28;20752;-27
2023/07/08 08:38:57;;;;;;;9.45;7.10;;;26.80;93.10;;;;;;5042498;28;20243;-26
2023/07/08 08:41:42;;;;;;;10.48;6.80;;;26.80;93.20;;;;;;5044376;28;20216;-27
2023/07/08 08:44:17;;;;;;;10.30;7.15;;;26.80;93.20;;;;;;5044269;28;20203;-27
2023/07/08 08:47:38;;;;;;;8.30;6.63;;;26.90;93.20;;;;;;5042545;28;20261;-27
2023/07/08 08:50:25;;;;;;;8.55;6.95;;;27.00;93.30;;;;;;5042772;28;20235;-27
2023/07/08 08:53:01;;;;;;;8.48;7.03;;;27.00;93.30;;;;;;5042810;28;20200;-27
2023/07/08 08:55:31;;;;;;;7.60;6.50;;;27.10;93.20;;;;;;5044412;28;20199;-27
2023/07/08 08:58:07;;;;;;;8.73;5.95;;;27.10;93.20;;;;;;5043887;28;20968;-27
2023/07/08 09:01:00;;;;;;;10.50;7.00;;;27.20;93.30;;;;;;5044045;28;20246;-26
2023/07/08 09:03:38;;;;;;;8.18;6.50;;;27.20;93.30;;;;;;5043840;28;20319;-26
2023/07/08 09:06:12;;;;;;;9.40;7.03;;;27.30;93.40;;;;;;5041292;28;20305;-27
2023/07/08 09:08:40;;;;;;;8.82;6.50;;;27.30;93.30;;;;;;5043687;28;20230;-26
2023/07/08 09:11:26;;;;;;;8.32;6.60;;;27.40;93.40;;;;;;5041705;28;20224;-27
2023/07/08 09:13:56;;;;;;;7.85;6.80;;;27.40;93.40;;;;;;5041365;28;20799;-27
2023/07/08 09:16:26;;;;;;;8.35;6.47;;;27.50;93.50;;;;;;5043321;28;20228;-26
2023/07/08 09:19:00;;;;;;;8.57;7.18;;;27.60;93.50;;;;;;5041874;28;20205;-26
2023/07/08 09:21:48;;;;;;;10.00;6.65;;;27.60;93.50;;;;;;5046930;28;20220;-26
2023/07/08 09:24:49;;;;;;;8.02;6.20;;;27.70;93.50;;;;;;5045775;28;20298;-26
2023/07/08 09:27:16;;;;;;;8.63;7.07;;;27.80;93.50;;;;;;5031060;28;20673;-26
2023/07/08 09:29:44;;;;;;;8.45;6.10;;;27.80;93.50;;;;;;5046861;28;20260;-26
2023/07/08 09:32:17;;;;;;;9.38;7.00;;;27.90;93.50;;;;;;5046888;28;20250;-26
2023/07/08 09:34:49;;;;;;;7.03;6.13;;;28.00;93.60;;;;;;5046419;28;20201;-26
2023/07/08 09:37:25;;;;;;;8.40;7.13;;;28.00;93.60;;;;;;5046485;28;20240;-26
2023/07/08 09:39:54;;;;;;;7.90;6.60;;;28.10;93.60;;;;;;5044560;28;20199;-26
2023/07/08 09:42:26;;;;;;;10.00;6.80;;;28.10;93.60;;;;;;5046609;28;20258;-26
2023/07/08 09:45:02;;;;;;;10.70;7.00;;;28.20;93.70;;;;;;5045227;28;20200;-26
2023/07/08 09:47:34;;;;;;;8.88;6.93;;;28.30;93.60;;;;;;5046261;28;20204;-27
2023/07/08 09:50:15;;;;;;;7.45;6.25;;;28.30;93.60;;;;;;5045511;28;20277;-27
2023/07/08 09:52:48;;;;;;;11.05;6.35;;;28.40;93.60;;;;;;5044987;28;20659;-26
2023/07/08 09:55:16;;;;;;;8.32;7.10;;;28.40;93.70;;;;;;5044538;28;20651;-26
2023/07/08 09:57:46;;;;;;;7.97;7.07;;;28.50;93.70;;;;;;5046921;28;20365;-26
2023/07/08 10:00:17;;;;;;;8.25;6.50;;;28.50;93.70;;;;;;5045167;28;20208;-27
2023/07/08 10:02:52;;;;;;;9.55;6.70;;;28.60;93.80;;;;;;5044527;28;20254;-27
2023/07/08 10:05:51;;;;;;;8.02;7.18;;;28.70;93.80;;;;;;5046087;28;20204;-27
2023/07/08 10:08:23;;;;;;;8.48;6.47;;;28.80;93.70;;;;;;5044954;28;20207;-27
2023/07/08 10:11:14;;;;;;;10.55;6.68;;;28.80;94.10;;;;;;5046336;28;20632;-27
2023/07/08 10:13:48;;;;;;;8.07;6.72;;;28.90;93.70;;;;;;5046094;28;20561;-27
2023/07/08 10:16:34;;;;;;;8.23;6.95;;;28.90;93.80;;;;;;5046136;28;20200;-25
2023/07/08 10:19:12;;;;;;;8.50;6.85;;;29.00;93.80;;;;;;5046062;28;20235;-27
2023/07/08 10:21:58;;;;;;;8.15;6.70;;;29.10;93.80;;;;;;5028433;28;20219;-26
2023/07/08 10:24:37;;;;;;;8.57;6.85;;;29.20;93.80;;;;;;5043940;28;20208;-26
2023/07/08 10:27:15;;;;;;;8.70;7.55;;;29.20;93.70;;;;;;5045712;28;20286;-26
2023/07/08 10:30:06;;;;;;;9.90;7.00;;;29.30;93.60;;;;;;5045551;28;20216;-26
2023/07/08 10:32:54;;;;;;;7.15;6.45;;;29.30;93.50;;;;;;5043307;28;20211;-27
2023/07/08 10:35:30;;;;;;;9.73;7.28;;;29.40;93.70;;;;;;5045403;28;20638;-27
2023/07/08 10:38:00;;;;;;;8.63;7.00;;;29.50;93.60;;;;;;5045261;28;20232;-27
2023/07/08 10:40:45;;;;;;;8.45;6.43;;;29.50;93.70;;;;;;5045763;28;20219;-26
2023/07/08 10:43:15;;;;;;;9.10;6.47;;;29.60;93.80;;;;;;5045155;28;20200;-26
2023/07/08 10:46:07;;;;;;;8.25;7.00;;;29.70;93.90;;;;;;5044978;28;20204;-26
2023/07/08 10:48:52;;;;;;;9.90;6.80;;;29.80;93.90;;;;;;5045411;28;20299;-27
2023/07/08 10:51:26;;;;;;;13.25;7.35;;;29.90;93.90;;;;;;5044903;28;20228;-26
2023/07/08 10:54:17;;;;;;;9.68;7.47;;;30.00;93.90;;;;;;5043489;28;20270;-26
2023/07/08 10:57:04;;;;;;;8.55;7.30;;;30.10;93.90;;;;;;5045369;28;20188;-26
2023/07/08 11:00:10;;;;;;;8.10;6.60;;;30.20;93.90;;;;;;5044805;28;20277;-25
2023/07/08 11:03:01;;;;;;;9.85;6.85;;;30.20;93.90;;;;;;5044687;28;20219;-26
2023/07/08 11:05:46;;;;;;;8.15;6.55;;;30.30;93.90;;;;;;5043779;28;20570;-26
2023/07/08 11:08:26;;;;;;;9.18;6.78;;;30.40;94.00;;;;;;5043332;28;20196;-26
2023/07/08 11:10:58;;;;;;;9.10;6.85;;;30.40;93.90;;;;;;5042751;28;20219;-26
2023/07/08 11:13:51;;;;;;;8.63;6.70;;;30.50;93.90;;;;;;5043591;28;20206;-25
2023/07/08 11:16:28;;;;;;;9.45;6.50;;;30.60;93.90;;;;;;5042947;28;20203;-26
2023/07/08 11:19:27;;;;;;;9.07;6.32;;;30.60;93.90;;;;;;5043064;28;20226;-26
2023/07/08 11:22:07;;;;;;;7.22;6.30;;;30.70;93.90;;;;;;5044776;28;20207;-26
2023/07/08 11:24:34;;;;;;;9.55;6.18;;;30.80;93.80;;;;;;5043134;28;20693;-26
2023/07/08 11:27:06;;;;;;;7.35;6.35;;;30.80;93.80;;;;;;5044306;28;20628;-26
2023/07/08 11:29:48;;;;;;;8.63;6.60;;;30.90;93.40;;;;;;5043954;28;20192;-26
2023/07/08 11:32:21;;;;;;;7.05;5.68;;;30.90;93.70;;;;;;5044335;28;20207;-27
2023/07/08 11:34:53;;;;;;;7.15;5.80;;;31.00;93.70;;;;;;5042638;28;20424;-27
2023/07/08 11:37:29;;;;;;;9.43;5.78;;;31.10;93.80;;;;;;5043868;28;20796;-27
2023/07/08 11:40:17;;;;;;;9.20;6.10;;;31.10;93.80;;;;;;5042731;28;20771;-26
2023/07/08 11:42:49;;;;;;;7.18;6.20;;;31.20;93.90;;;;;;5043878;28;20203;-27
2023/07/08 11:45:43;;;;;;;6.68;5.65;;;31.30;93.90;;;;;;5042601;28;20545;-26
2023/07/08 11:48:17;;;;;;;10.75;6.15;;;31.40;93.90;;;;;;5030822;28;20213;-26
2023/07/08 11:50:46;;;;;;;7.07;6.38;;;31.40;93.90;;;;;;5022497;28;20220;-26
2023/07/08 11:53:31;;;;;;;8.77;6.30;;;31.50;93.80;;;;;;5024013;28;20208;-26
2023/07/08 11:56:16;;;;;;;8.55;6.10;;;31.60;93.90;;;;;;5022831;28;20227;-26
2023/07/08 11:58:49;;;;;;;8.82;6.57;;;31.70;93.90;;;;;;5023825;28;20201;-26
2023/07/08 12:01:19;;;;;;;7.85;5.70;;;31.70;93.80;;;;;;5023819;28;20197;-26
2023/07/08 12:04:16;;;;;;;6.13;5.53;;;31.80;93.90;;;;;;5023835;28;20212;-26
2023/07/08 12:07:01;;;;;;;7.95;6.13;;;31.90;94.00;;;;;;5024122;28;20636;-26
2023/07/08 12:09:35;;;;;;;7.03;6.15;;;32.00;94.00;;;;;;5022263;28;20629;-27
2023/07/08 12:12:25;;;;;;;9.32;6.10;;;32.00;93.70;;;;;;5024209;28;20224;-26
2023/07/08 12:15:03;;;;;;;7.88;5.78;;;32.10;93.90;;;;;;5024124;28;20255;-26
2023/07/08 12:17:31;;;;;;;7.63;5.63;;;32.20;93.90;;;;;;5024038;28;20223;-26
2023/07/08 12:20:03;;;;;;;6.20;5.18;;;32.20;93.90;;;;;;5022102;28;20318;-26
2023/07/08 12:22:34;;;;;;;7.70;5.60;;;32.30;94.00;;;;;;5022385;28;20205;-33
2023/07/08 12:25:07;;;;;;;6.90;5.47;;;32.40;94.00;;;;;;5023413;28;20197;-33
2023/07/08 12:27:36;;;;;;;8.18;5.75;;;32.50;94.00;;;;;;5023821;28;20220;-33
2023/07/08 12:30:04;;;;;;;8.50;6.07;;;32.60;94.10;;;;;;5023924;28;20204;-33
2023/07/08 12:32:32;;;;;;;7.90;5.75;;;32.60;94.00;;;;;;5023538;28;20280;-33
2023/07/08 12:34:59;;;;;;;8.40;5.85;;;32.70;94.10;;;;;;5022186;28;20288;-33
2023/07/08 12:37:31;;;;;;;6.82;5.57;;;32.80;94.00;;;;;;5021894;28;20306;-33
2023/07/08 12:40:05;;;;;;;6.95;5.78;;;32.90;94.10;;;;;;5023634;28;20193;-33
2023/07/08 12:42:35;;;;;;;7.43;6.05;;;33.00;94.10;;;;;;5023695;28;20200;-33
2023/07/08 12:45:13;;;;;;;9.68;6.00;;;33.00;94.10;;;;;;5021560;28;20200;-33
2023/07/08 12:47:41;;;;;;;8.43;5.53;;;33.10;93.90;;;;;;5021599;28;20192;-33
2023/07/08 12:50:12;;;;;;;6.45;5.00;;;33.10;94.00;;;;;;5021941;28;20762;-33
2023/07/08 12:52:43;;;;;;;7.22;5.30;;;33.20;93.90;;;;;;5021900;28;20215;-33
2023/07/08 12:55:12;;;;;;;8.82;5.65;;;33.20;93.80;;;;;;5024151;28;20578;-33
2023/07/08 12:57:47;;;;;;;10.02;5.43;;;33.20;93.70;;;;;;5027873;28;20203;-33
2023/07/08 13:00:44;;;;;;;14.63;5.63;;;33.20;93.50;;;;;;5027675;28;20197;-33
2023/07/08 13:03:24;;;;;;;16.98;6.05;;;33.10;93.30;;;;;;5025419;28;20201;-33
2023/07/08 13:05:57;;;;;;;11.63;4.97;;;33.10;93.10;;;;;;5027292;28;20205;-33
2023/07/08 13:08:32;;;;;;;10.48;3.85;;;33.00;92.90;;;;;;5027288;28;20298;-33
2023/07/08 13:11:03;;;;;;;11.43;3.33;;;32.80;92.40;;;;;;5027100;28;20228;-32
2023/07/08 13:13:38;;;;;;;12.95;4.00;;;32.70;92.10;;;;;;5027288;28;20205;-33
2023/07/08 13:16:11;;;;;;;6.75;3.03;;;32.50;91.90;;;;;;5008873;28;20219;-33